createdAt,value
2023-04-09T00:01:17.060Z,101604.48
2023-04-09T00:03:49.451Z,101595.00
2023-04-09T00:06:21.722Z,101599.52
2023-04-09T00:08:54.233Z,101602.91
2023-04-09T00:11:27.002Z,101602.22
2023-04-09T00:14:00.105Z,101603.40
2023-04-09T00:16:32.804Z,101605.39
2023-04-09T00:19:06.004Z,101594.30
2023-04-09T00:21:38.158Z,101610.44
2023-04-09T00:24:10.784Z,101613.34
2023-04-09T00:26:43.059Z,101615.15
2023-04-09T00:29:15.613Z,101612.05
2023-04-09T00:31:48.003Z,101608.98
2023-04-09T00:34:20.320Z,101611.40
2023-04-09T00:36:52.674Z,101614.69
2023-04-09T00:39:25.012Z,101612.44
2023-04-09T00:42:02.712Z,101609.56
2023-04-09T00:44:35.889Z,101608.10
2023-04-09T00:47:20.127Z,101604.52
2023-04-09T00:49:53.160Z,101602.80
2023-04-09T00:52:25.595Z,101602.54
2023-04-09T00:54:58.325Z,101602.25
2023-04-09T00:57:30.939Z,101608.23
2023-04-09T01:00:04.149Z,101610.61
2023-04-09T01:02:37.203Z,101604.66
2023-04-09T01:05:10.503Z,101600.42
2023-04-09T01:07:55.916Z,101599.05
2023-04-09T01:10:37.026Z,101586.05
2023-04-09T01:13:17.474Z,101596.83
2023-04-09T01:15:55.199Z,101600.27
2023-04-09T01:18:32.654Z,101582.52
2023-04-09T01:21:11.172Z,101603.80
2023-04-09T01:23:49.170Z,101602.40
2023-04-09T01:26:32.752Z,101603.58
2023-04-09T01:29:07.001Z,101606.17
2023-04-09T01:31:43.167Z,101604.84
2023-04-09T01:34:17.688Z,101598.19
2023-04-09T01:36:55.160Z,101606.08
2023-04-09T01:39:28.326Z,101606.77
2023-04-09T01:42:02.212Z,101607.14
2023-04-09T01:44:35.619Z,101606.63
2023-04-09T01:47:08.290Z,101606.55
2023-04-09T01:49:44.529Z,101606.86
2023-04-09T01:52:17.191Z,101605.63
2023-04-09T01:54:49.547Z,101605.48
2023-04-09T01:57:21.735Z,101610.79
2023-04-09T01:59:55.575Z,101606.11
2023-04-09T02:02:37.468Z,101607.33
2023-04-09T02:05:13.154Z,101607.98
2023-04-09T02:07:48.532Z,101607.34
2023-04-09T02:10:21.789Z,101605.20
2023-04-09T02:12:56.496Z,101606.46
2023-04-09T02:15:30.022Z,101606.95
2023-04-09T02:18:02.569Z,101606.13
2023-04-09T02:20:34.918Z,101593.70
2023-04-09T02:23:07.128Z,101608.66
2023-04-09T02:25:39.402Z,101610.49
2023-04-09T02:28:11.704Z,101610.59
2023-04-09T02:30:44.247Z,101610.69
2023-04-09T02:33:16.473Z,101596.59
2023-04-09T02:35:48.808Z,101610.40
2023-04-09T02:38:21.082Z,101607.21
2023-04-09T02:40:53.306Z,101591.85
2023-04-09T02:43:25.879Z,101603.09
2023-04-09T02:45:58.318Z,101584.21
2023-04-09T02:48:30.761Z,101586.00
2023-04-09T02:51:02.913Z,101596.24
2023-04-09T02:53:35.608Z,101594.30
2023-04-09T02:56:08.735Z,101588.59
2023-04-09T02:58:40.893Z,101580.36
2023-04-09T03:01:13.265Z,101581.92
2023-04-09T03:03:45.633Z,101582.35
2023-04-09T03:06:18.611Z,101582.32
2023-04-09T03:08:51.351Z,101580.05
2023-04-09T03:11:24.047Z,101581.57
2023-04-09T03:13:56.292Z,101580.71
2023-04-09T03:16:29.043Z,101579.05
2023-04-09T03:19:01.529Z,101577.21
2023-04-09T03:21:33.856Z,101568.95
2023-04-09T03:24:06.484Z,101565.38
2023-04-09T03:26:39.476Z,101555.97
2023-04-09T03:29:11.806Z,101557.59
2023-04-09T03:31:44.229Z,101553.39
2023-04-09T03:34:16.742Z,101550.23
2023-04-09T03:36:50.445Z,101556.73
2023-04-09T03:39:32.397Z,101556.65
2023-04-09T03:42:04.665Z,101554.91
2023-04-09T03:44:45.600Z,101556.75
2023-04-09T03:47:22.759Z,101562.03
2023-04-09T03:49:55.441Z,101562.70
2023-04-09T03:52:30.971Z,101558.87
2023-04-09T03:55:11.819Z,101563.98
2023-04-09T03:57:43.861Z,101561.25
2023-04-09T04:00:20.118Z,101559.80
2023-04-09T04:03:14.794Z,101552.73
2023-04-09T04:06:07.140Z,101557.05
2023-04-09T04:09:14.456Z,101562.00
2023-04-09T04:11:52.661Z,101564.45
2023-04-09T04:14:25.594Z,101561.62
2023-04-09T04:17:02.926Z,101564.83
2023-04-09T04:19:35.510Z,101567.27
2023-04-09T04:22:07.780Z,101570.14
2023-04-09T04:24:41.488Z,101560.78
2023-04-09T04:27:14.161Z,101568.80
2023-04-09T04:29:46.426Z,101559.94
2023-04-09T04:32:39.055Z,101573.23
2023-04-09T04:35:14.463Z,101571.02
2023-04-09T04:37:46.780Z,101556.98
2023-04-09T04:40:19.954Z,101566.76
2023-04-09T04:42:53.115Z,101566.22
2023-04-09T04:45:25.575Z,101551.67
2023-04-09T04:48:03.315Z,101552.39
2023-04-09T04:50:36.231Z,101572.45
2023-04-09T04:53:12.107Z,101566.48
2023-04-09T04:55:52.234Z,101579.30
2023-04-09T04:58:29.473Z,101578.59
2023-04-09T05:01:01.673Z,101577.98
2023-04-09T05:03:35.269Z,101575.52
2023-04-09T05:06:26.913Z,101577.13
2023-04-09T05:09:01.614Z,101550.20
2023-04-09T05:11:39.955Z,101570.83
2023-04-09T05:14:14.717Z,101576.92
2023-04-09T05:16:49.708Z,101574.56
2023-04-09T05:19:23.371Z,101576.97
2023-04-09T05:22:00.568Z,101585.42
2023-04-09T05:24:33.529Z,101588.00
2023-04-09T05:27:06.300Z,101585.79
2023-04-09T05:29:39.136Z,101585.46
2023-04-09T05:32:12.679Z,101584.34
2023-04-09T05:34:45.504Z,101580.80
2023-04-09T05:37:17.727Z,101578.59
2023-04-09T05:39:53.585Z,101578.47
2023-04-09T05:42:25.763Z,101577.23
2023-04-09T05:45:06.883Z,101574.31
2023-04-09T05:47:39.296Z,101579.05
2023-04-09T05:50:19.568Z,101578.28
2023-04-09T05:52:52.245Z,101576.98
2023-04-09T05:55:25.536Z,101582.51
2023-04-09T05:58:04.661Z,101581.16
2023-04-09T06:00:37.848Z,101582.01
2023-04-09T06:03:10.491Z,101582.48
2023-04-09T06:05:43.108Z,101583.07
2023-04-09T06:08:15.355Z,101587.46
2023-04-09T06:10:47.566Z,101591.93
2023-04-09T06:13:19.941Z,101586.95
2023-04-09T06:15:52.802Z,101585.30
2023-04-09T06:18:25.827Z,101584.92
2023-04-09T06:21:06.562Z,101583.23
2023-04-09T06:23:39.691Z,101587.79
2023-04-09T06:26:12.072Z,101586.83
2023-04-09T06:28:44.478Z,101585.75
2023-04-09T06:31:16.819Z,101585.69
2023-04-09T06:33:48.965Z,101591.06
2023-04-09T06:36:21.376Z,101593.20
2023-04-09T06:38:53.546Z,101592.02
2023-04-09T06:41:26.436Z,101585.84
2023-04-09T06:43:58.702Z,101584.63
2023-04-09T06:46:30.968Z,101588.65
2023-04-09T06:49:03.040Z,101594.20
2023-04-09T06:51:35.535Z,101598.21
2023-04-09T06:54:08.464Z,101601.27
2023-04-09T06:56:40.556Z,101600.45
2023-04-09T06:59:12.896Z,101593.40
2023-04-09T07:01:46.101Z,101596.86
2023-04-09T07:04:18.647Z,101597.60
2023-04-09T07:06:52.852Z,101600.80
2023-04-09T07:09:25.287Z,101605.02
2023-04-09T07:11:57.261Z,101611.00
2023-04-09T07:14:29.381Z,101616.73
2023-04-09T07:17:01.530Z,101620.63
2023-04-09T07:19:34.063Z,101622.39
2023-04-09T07:22:06.547Z,101621.35
2023-04-09T07:24:39.264Z,101624.23
2023-04-09T07:27:11.485Z,101623.02
2023-04-09T07:29:46.709Z,101620.49
2023-04-09T07:32:19.124Z,101617.57
2023-04-09T07:34:52.136Z,101636.73
2023-04-09T07:37:24.372Z,101641.38
2023-04-09T07:39:56.907Z,101639.08
2023-04-09T07:42:29.070Z,101640.17
2023-04-09T07:45:01.344Z,101637.18
2023-04-09T07:47:33.876Z,101625.05
2023-04-09T07:50:07.770Z,101640.41
2023-04-09T07:52:39.986Z,101642.08
2023-04-09T07:55:12.729Z,101640.75
2023-04-09T07:57:45.333Z,101636.66
2023-04-09T08:00:19.293Z,101639.57
2023-04-09T08:02:52.890Z,101640.65
2023-04-09T08:05:25.473Z,101644.74
2023-04-09T08:07:57.716Z,101648.70
2023-04-09T08:10:30.020Z,101655.86
2023-04-09T08:13:02.757Z,101658.60
2023-04-09T08:15:35.285Z,101660.65
2023-04-09T08:18:07.877Z,101658.33
2023-04-09T08:20:45.159Z,101655.50
2023-04-09T08:23:17.941Z,101656.58
2023-04-09T08:25:50.464Z,101656.48
2023-04-09T08:28:22.594Z,101653.65
2023-04-09T08:30:54.887Z,101646.88
2023-04-09T08:33:27.064Z,101650.21
2023-04-09T08:36:00.844Z,101653.19
2023-04-09T08:38:34.878Z,101651.77
2023-04-09T08:41:07.483Z,101638.42
2023-04-09T08:43:56.835Z,101638.56
2023-04-09T08:46:32.030Z,101648.42
2023-04-09T08:49:05.125Z,101653.02
2023-04-09T08:51:37.405Z,101640.60
2023-04-09T08:54:09.940Z,101650.91
2023-04-09T08:56:42.445Z,101650.78
2023-04-09T08:59:19.301Z,101647.00
2023-04-09T09:02:07.838Z,101648.70
2023-04-09T09:04:51.105Z,101645.45
2023-04-09T09:07:23.230Z,101643.42
2023-04-09T09:09:58.764Z,101645.27
2023-04-09T09:12:39.711Z,101644.35
2023-04-09T09:15:28.917Z,101643.32
2023-04-09T09:18:02.072Z,101648.02
2023-04-09T09:20:35.257Z,101651.35
2023-04-09T09:23:08.837Z,101649.59
2023-04-09T09:25:43.454Z,101653.70
2023-04-09T09:28:14.476Z,101655.59
2023-04-09T09:30:49.196Z,101656.36
2023-04-09T09:33:21.809Z,101656.50
2023-04-09T09:35:57.792Z,101652.52
2023-04-09T09:38:30.571Z,101653.07
2023-04-09T09:41:19.642Z,101648.27
2023-04-09T09:43:52.422Z,101638.69
2023-04-09T09:46:26.417Z,101647.21
2023-04-09T09:48:59.097Z,101647.54
2023-04-09T09:51:33.137Z,101646.69
2023-04-09T09:54:08.099Z,101645.68
2023-04-09T09:56:39.960Z,101641.55
2023-04-09T09:59:18.011Z,101641.16
2023-04-09T10:01:53.077Z,101639.08
2023-04-09T10:04:30.060Z,101634.52
2023-04-09T10:07:03.983Z,101637.02
2023-04-09T10:09:38.944Z,101633.13
2023-04-09T10:12:12.096Z,101625.67
2023-04-09T10:14:44.961Z,101628.52
2023-04-09T10:17:17.498Z,101618.69
2023-04-09T10:20:00.889Z,101617.48
2023-04-09T10:22:36.282Z,101614.76
2023-04-09T10:25:10.153Z,101615.41
2023-04-09T10:27:44.831Z,101618.66
2023-04-09T10:30:37.833Z,101619.45
2023-04-09T10:33:17.550Z,101620.71
2023-04-09T10:35:50.585Z,101621.14
2023-04-09T10:38:37.257Z,101619.84
2023-04-09T10:41:22.790Z,101621.52
2023-04-09T10:43:55.021Z,101615.34
2023-04-09T10:46:31.866Z,101616.30
2023-04-09T10:49:19.623Z,101618.08
2023-04-09T10:51:54.477Z,101610.52
2023-04-09T10:54:47.228Z,101605.77
2023-04-09T10:57:21.932Z,101610.13
2023-04-09T10:59:56.033Z,101594.56
2023-04-09T11:03:00.693Z,101608.33
2023-04-09T11:05:38.176Z,101612.09
2023-04-09T11:08:23.591Z,101607.10
2023-04-09T11:14:03.338Z,101611.77
2023-04-09T11:16:36.894Z,101612.30
2023-04-09T11:19:10.498Z,101610.60
2023-04-09T11:21:46.371Z,101610.58
2023-04-09T11:24:19.908Z,101612.36
2023-04-09T11:26:52.216Z,101612.51
2023-04-09T11:29:25.439Z,101601.81
2023-04-09T11:31:57.881Z,101608.96
2023-04-09T11:34:32.197Z,101607.52
2023-04-09T11:37:09.242Z,101593.00
2023-04-09T11:39:42.563Z,101601.13
2023-04-09T11:42:18.322Z,101602.54
2023-04-09T11:44:51.468Z,101602.28
2023-04-09T11:47:24.950Z,101603.54
2023-04-09T11:49:57.179Z,101605.17
2023-04-09T11:52:31.778Z,101606.25
2023-04-09T11:55:05.001Z,101607.02
2023-04-09T11:57:44.159Z,101605.36
2023-04-09T12:00:20.716Z,101602.59
2023-04-09T12:03:02.859Z,101601.23
2023-04-09T12:05:37.972Z,101601.60
2023-04-09T12:08:12.088Z,101601.65
2023-04-09T12:10:45.559Z,101603.81
2023-04-09T12:13:17.897Z,101607.45
2023-04-09T12:15:52.617Z,101596.02
2023-04-09T12:18:25.069Z,101606.75
2023-04-09T12:20:57.532Z,101606.10
2023-04-09T12:23:31.480Z,101606.66
2023-04-09T12:26:03.884Z,101605.65
2023-04-09T12:28:36.393Z,101606.09
2023-04-09T12:31:12.930Z,101600.73
2023-04-09T12:33:45.332Z,101605.94
2023-04-09T12:36:17.826Z,101608.58
2023-04-09T12:38:50.394Z,101603.70
2023-04-09T12:41:22.941Z,101604.67
2023-04-09T12:43:55.259Z,101599.58
2023-04-09T12:46:28.501Z,101598.77
2023-04-09T12:49:01.040Z,101600.48
2023-04-09T12:51:33.604Z,101600.26
2023-04-09T12:54:05.936Z,101598.48
2023-04-09T12:56:38.266Z,101602.21
2023-04-09T12:59:10.983Z,101595.23
2023-04-09T13:01:43.522Z,101595.87
2023-04-09T13:04:16.885Z,101594.49
2023-04-09T13:06:50.310Z,101597.42
2023-04-09T13:09:22.552Z,101589.47
2023-04-09T13:11:54.670Z,101589.14
2023-04-09T13:14:26.882Z,101590.13
2023-04-09T13:16:59.373Z,101594.65
2023-04-09T13:19:31.681Z,101591.27
2023-04-09T13:22:06.346Z,101592.23
2023-04-09T13:24:39.653Z,101593.23
2023-04-09T13:27:12.012Z,101594.25
2023-04-09T13:29:44.710Z,101596.48
2023-04-09T13:32:18.401Z,101599.94
2023-04-09T13:34:51.335Z,101599.84
2023-04-09T13:37:23.875Z,101596.38
2023-04-09T13:39:56.460Z,101594.04
2023-04-09T13:42:28.973Z,101596.02
2023-04-09T13:45:01.365Z,101596.55
2023-04-09T13:47:33.964Z,101601.38
2023-04-09T13:50:10.362Z,101589.20
2023-04-09T13:52:43.176Z,101594.76
2023-04-09T13:55:15.385Z,101593.19
2023-04-09T13:57:47.612Z,101597.05
2023-04-09T14:00:20.938Z,101593.67
2023-04-09T14:02:53.204Z,101594.02
2023-04-09T14:05:26.272Z,101595.10
2023-04-09T14:07:58.947Z,101592.59
2023-04-09T14:10:31.101Z,101590.04
2023-04-09T14:13:06.522Z,101588.68
2023-04-09T14:15:39.237Z,101587.41
2023-04-09T14:18:11.740Z,101588.68
2023-04-09T14:20:44.307Z,101586.19
2023-04-09T14:23:16.612Z,101583.98
2023-04-09T14:25:49.186Z,101584.92
2023-04-09T14:28:21.262Z,101569.54
2023-04-09T14:30:53.473Z,101580.04
2023-04-09T14:33:25.517Z,101573.36
2023-04-09T14:35:58.868Z,101568.14
2023-04-09T14:38:31.564Z,101565.52
2023-04-09T14:41:04.059Z,101565.29
2023-04-09T14:43:36.313Z,101561.35
2023-04-09T14:46:11.882Z,101561.36
2023-04-09T14:48:44.235Z,101555.23
2023-04-09T14:51:16.804Z,101533.20
2023-04-09T14:53:48.921Z,101553.77
2023-04-09T14:56:21.320Z,101553.88
2023-04-09T14:58:54.142Z,101551.15
2023-04-09T15:01:27.449Z,101553.58
2023-04-09T15:04:00.686Z,101549.55
2023-04-09T15:06:33.540Z,101547.99
2023-04-09T15:09:06.161Z,101550.60
2023-04-09T15:11:38.250Z,101529.91
2023-04-09T15:14:11.162Z,101536.86
2023-04-09T15:16:43.426Z,101550.55
2023-04-09T15:19:15.684Z,101553.82
2023-04-09T15:21:47.891Z,101549.11
2023-04-09T15:24:20.557Z,101547.48
2023-04-09T15:26:52.974Z,101548.13
2023-04-09T15:29:25.050Z,101555.17
2023-04-09T15:31:57.119Z,101551.54
2023-04-09T15:34:29.860Z,101552.89
2023-04-09T15:37:02.298Z,101546.88
2023-04-09T15:39:35.257Z,101550.67
2023-04-09T15:42:10.002Z,101547.45
2023-04-09T15:44:42.976Z,101550.14
2023-04-09T15:47:15.198Z,101551.73
2023-04-09T15:49:47.317Z,101548.92
2023-04-09T15:52:19.624Z,101549.71
2023-04-09T15:54:51.975Z,101550.91
2023-04-09T15:57:24.336Z,101554.65
2023-04-09T15:59:56.528Z,101538.80
2023-04-09T16:02:28.903Z,101554.25
2023-04-09T16:05:01.494Z,101554.33
2023-04-09T16:07:33.895Z,101555.43
2023-04-09T16:10:07.396Z,101556.75
2023-04-09T16:12:39.989Z,101558.17
2023-04-09T16:15:13.351Z,101559.16
2023-04-09T16:17:45.690Z,101545.75
2023-04-09T16:20:18.251Z,101555.34
2023-04-09T16:22:50.495Z,101556.94
2023-04-09T16:25:24.448Z,101558.38
2023-04-09T16:27:57.214Z,101559.38
2023-04-09T16:30:31.292Z,101556.80
2023-04-09T16:33:03.964Z,101552.65
2023-04-09T16:35:39.326Z,101552.15
2023-04-09T16:38:12.276Z,101546.18
2023-04-09T16:40:44.941Z,101544.66
2023-04-09T16:43:17.238Z,101542.35
2023-04-09T16:45:49.482Z,101537.94
2023-04-09T16:48:21.976Z,101537.00
2023-04-09T16:50:54.353Z,101536.45
2023-04-09T16:53:26.760Z,101541.49
2023-04-09T16:55:59.165Z,101548.64
2023-04-09T16:58:31.498Z,101545.69
2023-04-09T17:01:03.764Z,101544.77
2023-04-09T17:03:36.216Z,101547.73
2023-04-09T17:06:08.863Z,101545.27
2023-04-09T17:08:41.332Z,101551.61
2023-04-09T17:11:17.249Z,101552.53
2023-04-09T17:13:49.670Z,101557.38
2023-04-09T17:16:22.009Z,101555.63
2023-04-09T17:18:54.976Z,101554.48
2023-04-09T17:21:27.541Z,101558.65
2023-04-09T17:24:02.059Z,101554.45
2023-04-09T17:26:34.334Z,101553.82
2023-04-09T17:29:06.786Z,101551.90
2023-04-09T17:31:39.404Z,101552.80
2023-04-09T17:34:11.951Z,101557.69
2023-04-09T17:36:47.042Z,101560.14
2023-04-09T17:39:19.500Z,101559.30
2023-04-09T17:41:53.653Z,101561.42
2023-04-09T17:44:26.250Z,101564.13
2023-04-09T17:46:58.656Z,101570.14
2023-04-09T17:49:33.248Z,101569.21
2023-04-09T17:52:05.352Z,101573.42
2023-04-09T17:54:38.730Z,101573.88
2023-04-09T17:57:11.115Z,101570.50
2023-04-09T17:59:43.435Z,101575.63
2023-04-09T18:02:15.766Z,101560.48
2023-04-09T18:04:48.818Z,101571.45
2023-04-09T18:07:21.359Z,101579.27
2023-04-09T18:09:53.720Z,101582.90
2023-04-09T18:12:26.382Z,101589.60
2023-04-09T18:14:58.818Z,101585.59
2023-04-09T18:17:31.103Z,101593.58
2023-04-09T18:20:03.398Z,101591.23
2023-04-09T18:22:35.995Z,101594.16
2023-04-09T18:25:09.616Z,101590.44
2023-04-09T18:27:41.835Z,101595.35
2023-04-09T18:30:15.145Z,101599.02
2023-04-09T18:32:48.292Z,101602.80
2023-04-09T18:35:21.015Z,101608.89
2023-04-09T18:37:53.387Z,101607.38
2023-04-09T18:40:25.810Z,101612.64
2023-04-09T18:42:58.353Z,101611.96
2023-04-09T18:45:30.797Z,101615.16
2023-04-09T18:48:03.133Z,101615.56
2023-04-09T18:50:35.560Z,101620.97
2023-04-09T18:53:07.924Z,101615.42
2023-04-09T18:55:40.536Z,101618.11
2023-04-09T18:58:15.812Z,101610.60
2023-04-09T19:00:50.764Z,101620.48
2023-04-09T19:03:23.935Z,101608.92
2023-04-09T19:05:56.410Z,101619.80
2023-04-09T19:08:32.343Z,101622.73
2023-04-09T19:11:04.598Z,101624.66
2023-04-09T19:13:38.264Z,101630.06
2023-04-09T19:16:11.446Z,101628.41
2023-04-09T19:18:43.723Z,101626.19
2023-04-09T19:21:17.887Z,101619.41
2023-04-09T19:23:49.932Z,101624.40
2023-04-09T19:26:22.308Z,101625.77
2023-04-09T19:28:54.970Z,101625.04
2023-04-09T19:31:27.630Z,101628.73
2023-04-09T19:33:59.840Z,101628.02
2023-04-09T19:36:32.363Z,101630.58
2023-04-09T19:39:05.776Z,101634.80
2023-04-09T19:41:38.230Z,101620.48
2023-04-09T19:44:11.030Z,101635.98
2023-04-09T19:46:43.231Z,101634.64
2023-04-09T19:49:15.682Z,101633.66
2023-04-09T19:51:48.042Z,101635.13
2023-04-09T19:54:20.312Z,101633.94
2023-04-09T19:56:52.361Z,101640.30
2023-04-09T19:59:24.536Z,101637.84
2023-04-09T20:01:57.279Z,101641.24
2023-04-09T20:04:31.096Z,101638.39
2023-04-09T20:07:04.278Z,101640.40
2023-04-09T20:09:41.380Z,101643.09
2023-04-09T20:12:13.979Z,101644.58
2023-04-09T20:14:47.296Z,101646.08
2023-04-09T20:17:20.812Z,101644.20
2023-04-09T20:19:53.000Z,101647.60
2023-04-09T20:22:25.191Z,101648.58
2023-04-09T20:24:59.909Z,101649.02
2023-04-09T20:27:31.408Z,101646.55
2023-04-09T20:30:03.751Z,101648.11
2023-04-09T20:32:36.820Z,101647.33
2023-04-09T20:35:11.169Z,101635.48
2023-04-09T20:37:44.172Z,101648.45
2023-04-09T20:40:17.029Z,101624.27
2023-04-09T20:42:49.979Z,101652.39
2023-04-09T20:45:23.083Z,101655.34
2023-04-09T20:47:55.169Z,101659.50
2023-04-09T20:50:28.926Z,101653.13
2023-04-09T20:53:01.566Z,101657.24
2023-04-09T20:55:33.812Z,101640.49
2023-04-09T20:58:06.411Z,101658.45
2023-04-09T21:00:38.987Z,101655.40
2023-04-09T21:03:11.280Z,101656.52
2023-04-09T21:05:43.521Z,101659.48
2023-04-09T21:08:16.209Z,101661.74
2023-04-09T21:10:48.321Z,101665.46
2023-04-09T21:13:20.841Z,101663.81
2023-04-09T21:15:53.321Z,101655.94
2023-04-09T21:18:25.605Z,101654.20
2023-04-09T21:20:57.844Z,101638.59
2023-04-09T21:23:30.545Z,101651.54
2023-04-09T21:26:04.064Z,101653.35
2023-04-09T21:28:36.550Z,101650.85
2023-04-09T21:31:10.952Z,101652.68
2023-04-09T21:33:43.383Z,101648.36
2023-04-09T21:36:15.902Z,101646.02
2023-04-09T21:38:48.094Z,101642.19
2023-04-09T21:41:21.455Z,101645.19
2023-04-09T21:43:53.875Z,101652.34
2023-04-09T21:46:26.820Z,101650.22
2023-04-09T21:48:58.936Z,101652.58
2023-04-09T21:51:31.560Z,101654.16
2023-04-09T21:54:07.862Z,101657.60
2023-04-09T21:56:40.385Z,101646.12
2023-04-09T21:59:12.972Z,101658.92
2023-04-09T22:01:47.560Z,101658.41
2023-04-09T22:04:21.842Z,101657.08
2023-04-09T22:06:54.139Z,101650.31
2023-04-09T22:09:26.464Z,101644.64
2023-04-09T22:11:59.680Z,101651.64
2023-04-09T22:14:32.730Z,101643.30
2023-04-09T22:17:05.511Z,101642.75
2023-04-09T22:19:37.784Z,101655.36
2023-04-09T22:22:12.267Z,101640.95
2023-04-09T22:24:44.912Z,101644.38
2023-04-09T22:27:17.449Z,101644.85
2023-04-09T22:29:49.555Z,101647.09
2023-04-09T22:32:22.111Z,101639.64
2023-04-09T22:34:54.460Z,101647.80
2023-04-09T22:37:27.854Z,101646.15
2023-04-09T22:40:00.909Z,101651.16
2023-04-09T22:42:33.175Z,101648.30
2023-04-09T22:45:06.151Z,101653.63
2023-04-09T22:47:38.867Z,101656.06
2023-04-09T22:50:14.055Z,101660.91
2023-04-09T22:52:46.814Z,101661.66
2023-04-09T22:55:19.211Z,101659.93
2023-04-09T22:57:51.455Z,101663.15
2023-04-09T23:00:23.861Z,101663.45
2023-04-09T23:02:56.319Z,101657.70
2023-04-09T23:05:28.739Z,101655.64
2023-04-09T23:08:01.184Z,101655.61
2023-04-09T23:10:34.452Z,101656.33
2023-04-09T23:13:06.985Z,101659.98
2023-04-09T23:15:39.112Z,101656.51
2023-04-09T23:18:11.952Z,101653.84
2023-04-09T23:20:44.195Z,101654.47
2023-04-09T23:23:16.894Z,101655.55
2023-04-09T23:25:49.006Z,101640.37
2023-04-09T23:28:21.305Z,101654.39
2023-04-09T23:30:53.423Z,101654.06
2023-04-09T23:33:26.132Z,101650.71
2023-04-09T23:35:58.239Z,101650.30
2023-04-09T23:38:30.828Z,101647.69
2023-04-09T23:41:03.200Z,101646.91
2023-04-09T23:43:35.755Z,101645.13
2023-04-09T23:46:08.514Z,101640.02
2023-04-09T23:48:41.310Z,101641.02
2023-04-09T23:51:19.686Z,101641.50
2023-04-09T23:53:52.026Z,101641.08
2023-04-09T23:56:25.152Z,101636.56
2023-04-09T23:58:57.413Z,101638.54
